createdAt,value
2022-12-20T00:01:34.365Z,44.33
2022-12-20T00:04:06.299Z,48.57
2022-12-20T00:06:37.321Z,50.70
2022-12-20T00:09:07.737Z,48.57
2022-12-20T00:11:36.634Z,46.93
2022-12-20T00:14:04.978Z,51.00
2022-12-20T00:16:33.270Z,58.80
2022-12-20T00:19:04.617Z,49.80
2022-12-20T00:21:34.496Z,46.80
2022-12-20T00:24:05.214Z,47.80
2022-12-20T00:26:34.993Z,48.67
2022-12-20T00:29:03.416Z,43.67
2022-12-20T00:31:32.759Z,48.73
2022-12-20T00:34:02.068Z,51.37
2022-12-20T00:36:32.487Z,46.60
2022-12-20T00:39:01.874Z,44.07
2022-12-20T00:41:33.625Z,45.43
2022-12-20T00:44:04.153Z,45.40
2022-12-20T00:46:34.342Z,44.77
2022-12-20T00:49:02.831Z,51.77
2022-12-20T00:51:32.634Z,52.60
2022-12-20T00:54:01.040Z,46.60
2022-12-20T00:56:30.925Z,51.83
2022-12-20T00:59:00.619Z,52.70
2022-12-20T01:01:31.351Z,46.20
2022-12-20T01:04:00.611Z,41.60
2022-12-20T01:06:29.783Z,40.90
2022-12-20T01:08:58.776Z,49.57
2022-12-20T01:11:29.672Z,43.93
2022-12-20T01:14:02.435Z,43.63
2022-12-20T01:16:37.185Z,46.23
2022-12-20T01:19:06.323Z,49.03
2022-12-20T01:21:34.564Z,48.63
2022-12-20T01:24:02.831Z,55.97
2022-12-20T01:26:31.034Z,48.00
2022-12-20T01:29:01.336Z,40.13
2022-12-20T01:31:31.023Z,49.37
2022-12-20T01:34:01.827Z,48.00
2022-12-20T01:36:32.242Z,44.07
2022-12-20T01:39:02.155Z,45.33
2022-12-20T01:41:32.176Z,45.97
2022-12-20T01:44:03.499Z,47.60
2022-12-20T01:46:32.977Z,45.07
2022-12-20T01:49:06.851Z,43.20
2022-12-20T01:51:39.698Z,45.30
2022-12-20T01:54:12.035Z,44.00
2022-12-20T01:56:42.060Z,50.23
2022-12-20T01:59:15.925Z,47.60
2022-12-20T02:01:45.553Z,46.87
2022-12-20T02:04:14.206Z,49.83
2022-12-20T02:06:42.414Z,58.60
2022-12-20T02:09:10.691Z,62.33
2022-12-20T02:12:02.333Z,50.97
2022-12-20T02:14:45.164Z,55.93
2022-12-20T02:17:25.199Z,53.73
2022-12-20T02:20:32.096Z,44.30
2022-12-20T02:23:30.102Z,56.03
2022-12-20T02:26:15.813Z,56.57
2022-12-20T02:29:04.022Z,57.80
2022-12-20T02:31:40.193Z,58.57
2022-12-20T02:34:11.787Z,52.70
2022-12-20T02:36:40.745Z,48.40
2022-12-20T02:39:17.073Z,53.10
2022-12-20T02:41:51.511Z,49.37
2022-12-20T02:44:46.804Z,47.30
2022-12-20T02:47:21.799Z,49.37
2022-12-20T02:49:51.715Z,46.10
2022-12-20T02:52:22.101Z,50.40
2022-12-20T02:54:53.302Z,52.23
2022-12-20T02:57:26.631Z,46.60
2022-12-20T03:00:02.496Z,46.17
2022-12-20T03:02:56.046Z,47.50
2022-12-20T03:05:27.188Z,53.43
2022-12-20T03:07:55.915Z,49.23
2022-12-20T03:10:26.596Z,51.13
2022-12-20T03:12:54.881Z,48.20
2022-12-20T03:15:23.428Z,63.20
2022-12-20T03:17:56.088Z,55.10
2022-12-20T03:20:24.582Z,48.93
2022-12-20T03:22:52.914Z,50.60
2022-12-20T03:25:21.213Z,51.30
2022-12-20T03:27:49.780Z,48.57
2022-12-20T03:30:19.291Z,50.50
2022-12-20T03:32:47.662Z,52.97
2022-12-20T03:35:17.713Z,48.00
2022-12-20T03:37:46.013Z,47.57
2022-12-20T03:40:16.048Z,48.47
2022-12-20T03:42:45.332Z,44.97
2022-12-20T03:45:16.860Z,47.43
2022-12-20T03:47:45.546Z,48.80
2022-12-20T03:50:14.344Z,47.20
2022-12-20T03:52:45.902Z,51.63
2022-12-20T03:55:14.113Z,49.67
2022-12-20T03:57:44.888Z,41.80
2022-12-20T04:00:26.217Z,46.27
2022-12-20T04:03:01.602Z,44.97
2022-12-20T04:05:31.790Z,46.70
2022-12-20T04:08:01.708Z,48.60
2022-12-20T04:10:29.966Z,47.53
2022-12-20T04:12:58.217Z,44.20
2022-12-20T04:15:26.494Z,45.20
2022-12-20T04:17:55.106Z,41.90
2022-12-20T04:20:23.463Z,47.93
2022-12-20T04:23:12.156Z,47.10
2022-12-20T04:25:40.399Z,44.37
2022-12-20T04:28:08.959Z,49.97
2022-12-20T04:30:37.188Z,43.70
2022-12-20T04:33:05.517Z,48.20
2022-12-20T04:35:33.970Z,53.10
2022-12-20T04:38:02.963Z,49.43
2022-12-20T04:40:32.733Z,48.63
2022-12-20T04:43:03.703Z,48.27
2022-12-20T04:45:32.118Z,48.53
2022-12-20T04:48:14.763Z,46.00
2022-12-20T04:50:49.887Z,45.73
2022-12-20T04:53:35.523Z,45.60
2022-12-20T04:56:06.119Z,45.07
2022-12-20T04:58:34.329Z,50.37
2022-12-20T05:01:04.939Z,47.70
2022-12-20T05:03:42.357Z,42.27
2022-12-20T05:06:11.687Z,45.87
2022-12-20T05:08:41.381Z,40.87
2022-12-20T05:11:11.399Z,44.73
2022-12-20T05:13:40.010Z,43.87
2022-12-20T05:16:09.376Z,48.00
2022-12-20T05:18:41.602Z,44.60
2022-12-20T05:21:30.204Z,46.40
2022-12-20T05:24:15.476Z,41.77
2022-12-20T05:26:59.297Z,44.60
2022-12-20T05:29:27.634Z,46.70
2022-12-20T05:31:56.507Z,46.57
2022-12-20T05:34:26.696Z,41.07
2022-12-20T05:36:56.821Z,42.23
2022-12-20T05:39:29.560Z,46.60
2022-12-20T05:42:02.735Z,47.07
2022-12-20T05:44:31.053Z,44.37
2022-12-20T05:46:59.511Z,46.10
2022-12-20T05:49:31.136Z,43.67
2022-12-20T05:52:02.867Z,39.60
2022-12-20T05:54:31.216Z,42.23
2022-12-20T05:57:08.798Z,41.13
2022-12-20T05:59:39.699Z,42.40
2022-12-20T06:02:14.061Z,40.47
2022-12-20T06:04:43.400Z,43.33
2022-12-20T06:07:18.909Z,42.47
2022-12-20T06:09:50.071Z,42.53
2022-12-20T06:12:23.121Z,44.47
2022-12-20T06:14:52.611Z,46.83
2022-12-20T06:17:21.925Z,44.87
2022-12-20T06:19:50.260Z,49.57
2022-12-20T06:22:18.993Z,42.47
2022-12-20T06:24:53.991Z,45.43
2022-12-20T06:27:28.399Z,47.00
2022-12-20T06:30:16.071Z,45.70
2022-12-20T06:33:05.211Z,39.90
2022-12-20T06:35:33.551Z,46.27
2022-12-20T06:38:01.978Z,43.00
2022-12-20T06:40:33.880Z,40.60
2022-12-20T06:43:04.179Z,41.37
2022-12-20T06:45:37.575Z,43.93
2022-12-20T06:48:10.005Z,41.80
2022-12-20T06:50:39.569Z,39.13
2022-12-20T06:53:08.704Z,37.60
2022-12-20T06:55:37.112Z,39.40
2022-12-20T06:58:06.934Z,37.90
2022-12-20T07:00:38.224Z,43.20
2022-12-20T07:03:06.585Z,51.60
2022-12-20T07:05:34.921Z,49.17
2022-12-20T07:08:04.434Z,47.90
2022-12-20T07:10:32.938Z,52.20
2022-12-20T07:13:01.147Z,49.97
2022-12-20T07:15:30.710Z,51.20
2022-12-20T07:17:58.924Z,48.17
2022-12-20T07:20:27.203Z,47.80
2022-12-20T07:22:55.540Z,48.03
2022-12-20T07:25:24.711Z,45.60
2022-12-20T07:27:53.134Z,47.33
2022-12-20T07:30:33.538Z,45.67
2022-12-20T07:33:03.086Z,42.03
2022-12-20T07:35:31.269Z,45.83
2022-12-20T07:37:59.634Z,45.00
2022-12-20T07:40:27.902Z,47.80
2022-12-20T07:42:57.101Z,48.87
2022-12-20T07:45:26.054Z,51.20
2022-12-20T07:47:54.623Z,51.37
2022-12-20T07:50:24.755Z,49.20
2022-12-20T07:52:53.319Z,48.10
2022-12-20T07:55:22.625Z,47.20
2022-12-20T07:57:54.148Z,45.70
2022-12-20T08:00:23.657Z,45.90
2022-12-20T08:02:57.379Z,46.60
2022-12-20T08:05:27.161Z,40.73
2022-12-20T08:07:59.878Z,44.90
2022-12-20T08:10:28.950Z,45.97
2022-12-20T08:12:58.693Z,38.43
2022-12-20T08:15:27.529Z,42.03
2022-12-20T08:17:55.730Z,45.97
2022-12-20T08:20:23.882Z,48.67
2022-12-20T08:22:53.442Z,46.47
2022-12-20T08:25:22.647Z,40.67
2022-12-20T08:27:50.857Z,45.30
2022-12-20T08:30:19.279Z,39.23
2022-12-20T08:32:47.461Z,45.30
2022-12-20T08:35:15.642Z,39.77
2022-12-20T08:37:43.907Z,37.90
2022-12-20T08:40:14.777Z,42.63
2022-12-20T08:42:43.027Z,39.83
2022-12-20T08:45:12.536Z,36.67
2022-12-20T08:47:40.995Z,67.90
2022-12-20T08:50:10.013Z,36.10
2022-12-20T08:52:38.239Z,37.10
2022-12-20T08:55:07.460Z,41.00
2022-12-20T08:57:37.039Z,36.20
2022-12-20T09:00:06.013Z,39.30
2022-12-20T09:02:35.894Z,39.37
2022-12-20T09:05:04.992Z,37.10
2022-12-20T09:07:33.455Z,41.33
2022-12-20T09:10:01.799Z,37.10
2022-12-20T09:12:30.167Z,39.70
2022-12-20T09:14:59.714Z,36.33
2022-12-20T09:17:27.859Z,37.37
2022-12-20T09:19:56.266Z,37.83
2022-12-20T09:22:24.471Z,37.00
2022-12-20T09:24:52.672Z,40.27
2022-12-20T09:27:20.867Z,33.03
2022-12-20T09:29:49.062Z,32.37
2022-12-20T09:32:18.629Z,43.17
2022-12-20T09:34:48.284Z,39.30
2022-12-20T09:37:16.471Z,36.37
2022-12-20T09:39:44.669Z,41.33
2022-12-20T09:42:16.310Z,39.00
2022-12-20T09:44:44.739Z,39.53
2022-12-20T09:47:19.599Z,37.50
2022-12-20T09:49:51.516Z,35.90
2022-12-20T09:52:30.649Z,40.63
2022-12-20T09:55:11.077Z,30.70
2022-12-20T09:57:55.205Z,37.40
2022-12-20T10:00:23.650Z,34.60
2022-12-20T10:03:02.491Z,32.80
2022-12-20T10:05:45.910Z,32.83
2022-12-20T10:08:25.449Z,35.10
2022-12-20T10:10:57.212Z,35.30
2022-12-20T10:13:36.203Z,33.90
2022-12-20T10:16:17.246Z,27.50
2022-12-20T10:19:01.494Z,32.83
2022-12-20T10:21:37.719Z,35.57
2022-12-20T10:24:11.388Z,30.00
2022-12-20T10:26:39.728Z,32.13
2022-12-20T10:29:07.939Z,29.13
2022-12-20T10:31:36.745Z,31.67
2022-12-20T10:34:07.473Z,29.10
2022-12-20T10:36:37.636Z,29.37
2022-12-20T10:39:07.888Z,28.10
2022-12-20T10:41:50.028Z,34.23
2022-12-20T10:44:24.960Z,27.47
2022-12-20T10:46:55.515Z,29.57
2022-12-20T10:49:31.210Z,29.30
2022-12-20T10:52:02.829Z,30.43
2022-12-20T10:54:34.386Z,31.30
2022-12-20T10:57:04.848Z,29.67
2022-12-20T10:59:36.159Z,29.70
2022-12-20T11:02:18.844Z,29.30
2022-12-20T11:04:58.999Z,26.30
2022-12-20T11:07:30.058Z,26.60
2022-12-20T11:10:00.388Z,26.50
2022-12-20T11:12:28.892Z,26.97
2022-12-20T11:15:10.335Z,27.07
2022-12-20T11:17:42.484Z,33.03
2022-12-20T11:20:27.895Z,24.70
2022-12-20T11:23:08.077Z,25.43
2022-12-20T11:25:49.740Z,28.73
2022-12-20T11:28:44.932Z,27.53
2022-12-20T11:31:21.503Z,22.77
2022-12-20T11:34:03.377Z,25.57
2022-12-20T11:36:49.470Z,24.33
2022-12-20T11:39:28.209Z,27.67
2022-12-20T11:42:07.903Z,25.00
2022-12-20T11:45:01.960Z,31.07
2022-12-20T11:47:58.369Z,32.10
2022-12-20T11:50:51.943Z,27.83
2022-12-20T11:53:27.563Z,22.23
2022-12-20T11:56:01.193Z,21.50
2022-12-20T11:58:35.390Z,25.03
2022-12-20T12:01:12.968Z,31.13
2022-12-20T12:03:43.604Z,23.10
2022-12-20T12:06:19.538Z,21.50
2022-12-20T12:08:54.149Z,20.83
2022-12-20T12:12:04.685Z,22.00
2022-12-20T12:14:23.951Z,24.10
2022-12-20T12:16:58.766Z,18.93
2022-12-20T12:19:31.219Z,20.83
2022-12-20T12:22:04.553Z,23.33
2022-12-20T12:24:39.144Z,15.67
2022-12-20T12:27:16.274Z,16.60
2022-12-20T12:29:44.690Z,13.80
2022-12-20T12:32:21.837Z,14.90
2022-12-20T12:35:04.749Z,13.97
2022-12-20T12:38:05.376Z,16.43
2022-12-20T12:41:13.006Z,22.07
2022-12-20T12:43:51.427Z,15.87
2022-12-20T12:46:26.146Z,12.27
2022-12-20T12:48:59.967Z,14.93
2022-12-20T12:51:32.231Z,17.43
2022-12-20T12:54:15.336Z,19.37
2022-12-20T12:56:47.269Z,21.47
2022-12-20T12:59:43.955Z,18.20
2022-12-20T13:02:50.074Z,19.80
2022-12-20T13:05:35.927Z,16.10
2022-12-20T13:08:04.806Z,20.43
2022-12-20T13:11:09.631Z,22.10
2022-12-20T13:13:37.812Z,21.83
2022-12-20T13:17:09.501Z,20.47
2022-12-20T13:19:32.201Z,19.40
2022-12-20T13:22:21.964Z,24.67
2022-12-20T13:24:57.231Z,23.30
2022-12-20T13:27:32.299Z,17.20
2022-12-20T13:30:30.515Z,20.70
2022-12-20T13:33:40.400Z,20.07
2022-12-20T13:36:35.419Z,25.73
2022-12-20T13:39:20.822Z,21.30
2022-12-20T13:41:52.410Z,18.80
2022-12-20T13:44:41.063Z,18.27
2022-12-20T13:47:35.383Z,19.43
2022-12-20T13:50:23.855Z,18.97
2022-12-20T13:52:54.670Z,19.27
2022-12-20T13:55:36.207Z,18.80
2022-12-20T13:58:13.999Z,18.23
2022-12-20T14:00:42.620Z,21.17
2022-12-20T14:03:22.853Z,27.47
2022-12-20T14:05:57.657Z,29.13
2022-12-20T14:08:30.273Z,19.93
2022-12-20T14:11:09.106Z,22.30
2022-12-20T14:13:37.223Z,21.47
2022-12-20T14:16:11.503Z,24.03
2022-12-20T14:18:40.851Z,25.70
2022-12-20T14:21:11.994Z,27.57
2022-12-20T14:23:43.589Z,30.10
2022-12-20T14:26:14.487Z,21.73
2022-12-20T14:28:45.430Z,22.30
2022-12-20T14:31:26.747Z,17.93
2022-12-20T14:34:04.253Z,20.90
2022-12-20T14:36:34.523Z,20.87
2022-12-20T14:39:02.977Z,22.00
2022-12-20T14:41:33.909Z,21.90
2022-12-20T14:44:06.762Z,22.53
2022-12-20T14:46:36.624Z,22.20
2022-12-20T14:49:23.778Z,21.57
2022-12-20T14:52:05.166Z,26.07
2022-12-20T14:55:06.179Z,24.67
2022-12-20T14:57:25.005Z,36.60
2022-12-20T15:00:02.476Z,29.00
2022-12-20T15:02:41.636Z,29.80
2022-12-20T15:05:26.274Z,33.40
2022-12-20T15:07:55.798Z,29.20
2022-12-20T15:10:24.672Z,31.30
2022-12-20T15:12:52.888Z,27.50
2022-12-20T15:15:29.431Z,36.10
2022-12-20T15:17:58.045Z,32.30
2022-12-20T15:20:26.171Z,29.20
2022-12-20T15:22:55.765Z,28.47
2022-12-20T15:25:23.909Z,25.93
2022-12-20T15:27:52.267Z,22.83
2022-12-20T15:30:20.596Z,23.97
2022-12-20T15:32:55.454Z,27.60
2022-12-20T15:35:24.891Z,24.37
2022-12-20T15:37:53.135Z,25.50
2022-12-20T15:40:22.635Z,22.73
2022-12-20T15:42:52.503Z,24.20
2022-12-20T15:45:21.214Z,22.13
2022-12-20T15:47:50.137Z,26.13
2022-12-20T15:50:18.353Z,19.80
2022-12-20T15:52:46.494Z,24.73
2022-12-20T15:55:14.624Z,21.77
2022-12-20T15:57:44.347Z,18.57
2022-12-20T16:00:13.870Z,23.33
2022-12-20T16:02:42.256Z,20.90
2022-12-20T16:05:14.561Z,20.23
2022-12-20T16:07:42.724Z,22.13
2022-12-20T16:10:15.381Z,18.70
2022-12-20T16:12:45.007Z,20.27
2022-12-20T16:15:21.796Z,17.20
2022-12-20T16:17:50.171Z,21.30
2022-12-20T16:20:19.373Z,15.43
2022-12-20T16:22:47.607Z,15.57
2022-12-20T16:25:25.052Z,21.40
2022-12-20T16:27:54.710Z,25.30
2022-12-20T16:30:23.599Z,21.93
2022-12-20T16:32:52.174Z,16.17
2022-12-20T16:35:28.164Z,28.80
2022-12-20T16:37:57.638Z,20.63
2022-12-20T16:40:27.237Z,23.03
2022-12-20T16:42:57.612Z,18.40
2022-12-20T16:45:27.776Z,17.50
2022-12-20T16:47:56.651Z,19.50
2022-12-20T16:50:26.671Z,23.17
2022-12-20T16:52:55.353Z,19.10
2022-12-20T16:55:26.259Z,18.40
2022-12-20T16:57:56.374Z,18.63
2022-12-20T17:00:27.238Z,18.97
2022-12-20T17:02:56.270Z,25.93
2022-12-20T17:05:28.558Z,18.77
2022-12-20T17:07:56.967Z,20.20
2022-12-20T17:10:27.039Z,16.47
2022-12-20T17:12:56.661Z,18.90
2022-12-20T17:15:28.044Z,16.73
2022-12-20T17:17:58.068Z,17.13
2022-12-20T17:20:26.281Z,17.13
2022-12-20T17:25:42.055Z,19.47
2022-12-20T17:28:11.687Z,18.67
2022-12-20T17:30:39.828Z,20.40
2022-12-20T17:33:07.957Z,16.37
2022-12-20T17:35:36.131Z,18.30
2022-12-20T17:38:06.919Z,19.50
2022-12-20T17:40:35.145Z,19.57
2022-12-20T17:43:03.324Z,16.87
2022-12-20T17:45:36.288Z,16.30
2022-12-20T17:48:06.605Z,17.10
2022-12-20T17:50:34.874Z,22.23
2022-12-20T17:53:04.097Z,19.53
2022-12-20T17:55:32.474Z,21.13
2022-12-20T17:58:00.609Z,19.20
2022-12-20T18:00:38.077Z,19.73
2022-12-20T18:03:24.580Z,29.03
2022-12-20T18:06:03.968Z,23.60
2022-12-20T18:08:36.009Z,24.10
2022-12-20T18:11:04.334Z,25.30
2022-12-20T18:13:32.533Z,28.17
2022-12-20T18:16:00.802Z,21.47
2022-12-20T18:18:36.723Z,24.50
2022-12-20T18:21:06.371Z,22.03
2022-12-20T18:23:35.052Z,22.10
2022-12-20T18:26:08.307Z,24.23
2022-12-20T18:28:37.094Z,18.17
2022-12-20T18:31:07.731Z,21.23
2022-12-20T18:33:39.198Z,19.50
2022-12-20T18:36:10.299Z,18.37
2022-12-20T18:38:39.607Z,20.40
2022-12-20T18:41:09.725Z,18.40
2022-12-20T18:43:38.015Z,16.40
2022-12-20T18:46:07.793Z,18.40
2022-12-20T18:48:37.420Z,17.90
2022-12-20T18:51:06.697Z,18.73
2022-12-20T18:53:36.243Z,20.97
2022-12-20T18:56:05.264Z,18.63
2022-12-20T18:58:34.029Z,20.43
2022-12-20T19:01:08.235Z,18.83
2022-12-20T19:03:38.857Z,16.00
2022-12-20T19:06:07.889Z,23.60
2022-12-20T19:08:36.248Z,21.33
2022-12-20T19:11:07.773Z,16.27
2022-12-20T19:13:36.659Z,17.80
2022-12-20T19:16:07.620Z,17.90
2022-12-20T19:18:37.786Z,21.73
2022-12-20T19:21:07.697Z,21.10
2022-12-20T19:23:36.999Z,21.00
2022-12-20T19:26:07.023Z,17.90
2022-12-20T19:28:36.363Z,19.83
2022-12-20T19:31:07.902Z,18.93
2022-12-20T19:33:39.512Z,16.70
2022-12-20T19:36:11.289Z,16.40
2022-12-20T19:38:43.597Z,13.03
2022-12-20T19:41:11.921Z,17.63
2022-12-20T19:43:40.217Z,12.27
2022-12-20T19:46:08.604Z,12.90
2022-12-20T19:48:38.656Z,13.23
2022-12-20T19:51:10.184Z,13.50
2022-12-20T19:53:39.328Z,14.90
2022-12-20T19:56:08.627Z,15.20
2022-12-20T19:58:37.038Z,16.60
2022-12-20T20:01:05.445Z,19.70
2022-12-20T20:03:33.798Z,14.13
2022-12-20T20:06:03.620Z,19.83
2022-12-20T20:08:31.764Z,24.93
2022-12-20T20:11:08.837Z,17.60
2022-12-20T20:13:38.441Z,20.13
2022-12-20T20:16:07.671Z,21.93
2022-12-20T20:18:37.092Z,19.40
2022-12-20T20:21:09.632Z,20.30
2022-12-20T20:23:38.429Z,23.93
2022-12-20T20:26:09.059Z,23.33
2022-12-20T20:28:45.431Z,22.93
2022-12-20T20:31:15.728Z,21.67
2022-12-20T20:33:44.443Z,22.57
2022-12-20T20:36:16.909Z,23.17
2022-12-20T20:38:45.724Z,22.60
2022-12-20T20:41:14.350Z,24.37
2022-12-20T20:43:43.330Z,25.13
2022-12-20T20:46:14.026Z,18.50
2022-12-20T20:48:42.842Z,25.63
2022-12-20T20:51:11.204Z,21.50
2022-12-20T20:53:40.795Z,18.80
2022-12-20T20:56:10.408Z,19.50
2022-12-20T20:58:39.439Z,17.80
2022-12-20T21:01:09.488Z,17.13
2022-12-20T21:03:38.515Z,16.80
2022-12-20T21:08:58.868Z,15.00
2022-12-20T21:11:27.369Z,15.53
2022-12-20T21:13:56.271Z,14.20
2022-12-20T21:16:24.649Z,14.40
2022-12-20T21:18:53.338Z,15.83
2022-12-20T21:21:22.455Z,13.43
2022-12-20T21:23:51.137Z,19.07
2022-12-20T21:26:22.370Z,18.03
2022-12-20T21:28:50.938Z,13.83
2022-12-20T21:31:20.586Z,13.83
2022-12-20T21:33:48.879Z,16.57
2022-12-20T21:36:19.288Z,12.97
2022-12-20T21:38:50.344Z,12.47
2022-12-20T21:41:21.684Z,17.20
2022-12-20T21:43:50.043Z,11.93
2022-12-20T21:46:18.660Z,10.60
2022-12-20T21:48:47.801Z,8.40
2022-12-20T21:51:18.270Z,10.27
2022-12-20T21:53:48.421Z,7.43
2022-12-20T21:56:17.367Z,12.00
2022-12-20T21:58:47.795Z,10.60
2022-12-20T22:01:19.062Z,9.10
2022-12-20T22:03:50.242Z,13.10
2022-12-20T22:06:18.476Z,13.13
2022-12-20T22:08:49.895Z,9.30
2022-12-20T22:11:19.683Z,7.13
2022-12-20T22:13:49.221Z,10.17
2022-12-20T22:16:21.167Z,12.10
2022-12-20T22:18:51.019Z,8.17
2022-12-20T22:21:20.477Z,10.67
2022-12-20T22:23:49.157Z,10.13
2022-12-20T22:26:20.062Z,9.40
2022-12-20T22:28:52.023Z,10.97
2022-12-20T22:31:21.154Z,16.47
2022-12-20T22:33:49.652Z,6.63
2022-12-20T22:36:18.029Z,11.20
2022-12-20T22:38:46.497Z,8.53
2022-12-20T22:41:16.892Z,8.90
2022-12-20T22:43:46.050Z,7.47
2022-12-20T22:46:17.355Z,9.90
2022-12-20T22:48:46.467Z,8.33
2022-12-20T22:51:16.157Z,5.90
2022-12-20T22:53:44.609Z,5.73
2022-12-20T22:56:13.021Z,5.97
2022-12-20T22:58:41.790Z,8.40
2022-12-20T23:01:13.660Z,9.13
2022-12-20T23:03:44.432Z,11.10
2022-12-20T23:06:15.826Z,6.40
2022-12-20T23:08:44.519Z,6.13
2022-12-20T23:11:34.985Z,5.73
2022-12-20T23:14:21.862Z,7.63
2022-12-20T23:16:50.138Z,7.27
2022-12-20T23:19:19.820Z,10.97
2022-12-20T23:22:05.337Z,6.27
2022-12-20T23:24:34.065Z,6.67
2022-12-20T23:27:03.272Z,7.17
2022-12-20T23:29:32.746Z,6.60
2022-12-20T23:32:01.418Z,6.87
2022-12-20T23:34:31.827Z,8.60
2022-12-20T23:37:00.150Z,6.90
2022-12-20T23:39:28.260Z,5.30
2022-12-20T23:41:56.455Z,7.87
2022-12-20T23:44:24.763Z,7.60
2022-12-20T23:46:52.943Z,7.17
2022-12-20T23:49:21.415Z,10.13
2022-12-20T23:51:51.504Z,7.20
2022-12-20T23:54:21.624Z,9.63
2022-12-20T23:56:50.917Z,12.73
2022-12-20T23:59:20.854Z,7.50
